createdAt,value
2018-07-31T00:00:10.735Z,993.87
2018-07-31T00:01:10.732Z,993.83
2018-07-31T00:02:10.708Z,993.85
2018-07-31T00:03:10.705Z,993.86
2018-07-31T00:04:10.724Z,993.86
2018-07-31T00:05:10.667Z,993.89
2018-07-31T00:06:10.654Z,993.87
2018-07-31T00:07:10.689Z,993.83
2018-07-31T00:08:10.638Z,993.87
2018-07-31T00:09:10.635Z,993.90
2018-07-31T00:10:10.612Z,993.86
2018-07-31T00:11:10.603Z,993.88
2018-07-31T00:12:10.594Z,993.85
2018-07-31T00:13:10.574Z,993.89
2018-07-31T00:14:10.555Z,993.90
2018-07-31T00:15:10.536Z,993.87
2018-07-31T00:16:10.550Z,993.88
2018-07-31T00:17:10.516Z,993.88
2018-07-31T00:18:10.511Z,993.89
2018-07-31T00:19:10.489Z,993.87
2018-07-31T00:20:10.476Z,993.88
2018-07-31T00:21:10.476Z,993.88
2018-07-31T00:22:10.450Z,993.84
2018-07-31T00:23:10.441Z,993.84
2018-07-31T00:24:10.428Z,993.84
2018-07-31T00:25:10.406Z,993.87
2018-07-31T00:26:10.393Z,993.88
2018-07-31T00:27:10.383Z,993.84
2018-07-31T00:28:10.377Z,993.88
2018-07-31T00:29:10.365Z,993.87
2018-07-31T00:30:10.342Z,993.85
2018-07-31T00:31:10.362Z,993.86
2018-07-31T00:32:10.339Z,993.81
2018-07-31T00:33:10.310Z,993.82
2018-07-31T00:34:10.303Z,993.81
2018-07-31T00:35:10.278Z,993.79
2018-07-31T00:36:10.261Z,993.75
2018-07-31T00:37:10.255Z,993.80
2018-07-31T00:38:10.246Z,993.80
2018-07-31T00:39:10.232Z,993.77
2018-07-31T00:40:10.220Z,993.79
2018-07-31T00:41:10.201Z,993.76
2018-07-31T00:42:10.195Z,993.76
2018-07-31T00:43:10.191Z,993.73
2018-07-31T00:44:10.169Z,993.75
2018-07-31T00:45:10.151Z,993.74
2018-07-31T00:46:10.136Z,993.73
2018-07-31T00:47:10.121Z,993.75
2018-07-31T00:48:10.114Z,993.74
2018-07-31T00:49:10.101Z,993.77
2018-07-31T00:50:10.085Z,993.74
2018-07-31T00:51:10.069Z,993.72
2018-07-31T00:52:10.053Z,993.73
2018-07-31T00:53:10.044Z,993.69
2018-07-31T00:54:10.036Z,993.67
2018-07-31T00:55:10.021Z,993.65
2018-07-31T00:56:10.005Z,993.65
2018-07-31T00:57:09.989Z,993.64
2018-07-31T00:58:09.979Z,993.60
2018-07-31T00:59:09.963Z,993.60
2018-07-31T01:00:09.954Z,993.60
2018-07-31T01:01:09.960Z,993.60
2018-07-31T01:02:09.922Z,993.58
2018-07-31T01:03:09.909Z,993.59
2018-07-31T01:04:09.902Z,993.58
2018-07-31T01:05:09.883Z,993.59
2018-07-31T01:06:09.867Z,993.58
2018-07-31T01:07:09.864Z,993.60
2018-07-31T01:08:09.838Z,993.56
2018-07-31T01:09:09.843Z,993.58
2018-07-31T01:10:09.816Z,993.59
2018-07-31T01:11:09.803Z,993.56
2018-07-31T01:12:09.790Z,993.56
2018-07-31T01:13:09.782Z,993.58
2018-07-31T01:14:09.768Z,993.55
2018-07-31T01:15:09.752Z,993.54
2018-07-31T01:16:09.739Z,993.57
2018-07-31T01:17:09.733Z,993.54
2018-07-31T01:18:09.713Z,993.54
2018-07-31T01:19:09.697Z,993.52
2018-07-31T01:20:09.688Z,993.53
2018-07-31T01:21:09.665Z,993.51
2018-07-31T01:22:09.662Z,993.53
2018-07-31T01:23:09.646Z,993.50
2018-07-31T01:24:09.630Z,993.48
2018-07-31T01:25:09.615Z,993.51
2018-07-31T01:26:09.598Z,993.47
2018-07-31T01:27:09.594Z,993.50
2018-07-31T01:28:09.575Z,993.47
2018-07-31T01:29:09.566Z,993.44
2018-07-31T01:30:09.547Z,993.43
2018-07-31T01:31:09.534Z,993.43
2018-07-31T01:32:09.569Z,993.47
2018-07-31T01:33:09.510Z,993.43
2018-07-31T01:34:09.507Z,993.44
2018-07-31T01:35:09.475Z,993.44
2018-07-31T01:36:09.474Z,993.40
2018-07-31T01:37:09.461Z,993.45
2018-07-31T01:38:09.440Z,993.46
2018-07-31T01:39:09.421Z,993.41
2018-07-31T01:40:09.414Z,993.40
2018-07-31T01:41:09.404Z,993.41
2018-07-31T01:42:09.385Z,993.45
2018-07-31T01:43:09.379Z,993.43
2018-07-31T01:44:09.360Z,993.44
2018-07-31T01:45:09.345Z,993.40
2018-07-31T01:46:09.341Z,993.42
2018-07-31T01:47:09.321Z,993.42
2018-07-31T01:48:09.306Z,993.44
2018-07-31T01:49:09.300Z,993.44
2018-07-31T01:50:09.280Z,993.45
2018-07-31T01:51:09.268Z,993.43
2018-07-31T01:52:09.245Z,993.44
2018-07-31T01:53:09.233Z,993.42
2018-07-31T01:54:09.232Z,993.44
2018-07-31T01:55:09.210Z,993.44
2018-07-31T01:56:09.204Z,993.45
2018-07-31T01:57:09.184Z,993.44
2018-07-31T01:58:09.175Z,993.44
2018-07-31T01:59:09.156Z,993.42
2018-07-31T02:00:09.144Z,993.40
2018-07-31T02:01:09.139Z,993.41
2018-07-31T02:02:09.117Z,993.41
2018-07-31T02:03:09.101Z,993.43
2018-07-31T02:04:09.096Z,993.41
2018-07-31T02:05:09.079Z,993.41
2018-07-31T02:06:09.068Z,993.42
2018-07-31T02:07:09.041Z,993.46
2018-07-31T02:08:09.038Z,993.44
2018-07-31T02:09:09.022Z,993.45
2018-07-31T02:10:09.015Z,993.44
2018-07-31T02:11:08.994Z,993.45
2018-07-31T02:12:08.980Z,993.45
2018-07-31T02:13:08.972Z,993.42
2018-07-31T02:14:08.955Z,993.45
2018-07-31T02:15:08.936Z,993.43
2018-07-31T02:16:08.939Z,993.44
2018-07-31T02:17:08.936Z,993.41
2018-07-31T02:18:08.897Z,993.40
2018-07-31T02:19:08.888Z,993.42
2018-07-31T02:20:08.868Z,993.39
2018-07-31T02:21:08.858Z,993.41
2018-07-31T02:22:08.840Z,993.41
2018-07-31T02:23:08.831Z,993.41
2018-07-31T02:24:08.811Z,993.43
2018-07-31T02:25:08.804Z,993.41
2018-07-31T02:26:08.792Z,993.43
2018-07-31T02:27:08.769Z,993.41
2018-07-31T02:28:08.838Z,993.41
2018-07-31T02:29:08.747Z,993.37
2018-07-31T02:30:08.731Z,993.34
2018-07-31T02:31:08.721Z,993.36
2018-07-31T02:32:08.704Z,993.37
2018-07-31T02:33:08.688Z,993.37
2018-07-31T02:34:08.685Z,993.36
2018-07-31T02:35:08.671Z,993.38
2018-07-31T02:36:08.652Z,993.37
2018-07-31T02:37:08.636Z,993.36
2018-07-31T02:38:08.617Z,993.33
2018-07-31T02:39:08.612Z,993.34
2018-07-31T02:40:08.602Z,993.37
2018-07-31T02:41:08.592Z,993.37
2018-07-31T02:42:08.591Z,993.41
2018-07-31T02:43:08.556Z,993.41
2018-07-31T02:44:08.546Z,993.39
2018-07-31T02:45:08.534Z,993.41
2018-07-31T02:46:08.516Z,993.40
2018-07-31T02:47:08.502Z,993.39
2018-07-31T02:48:08.488Z,993.40
2018-07-31T02:49:08.481Z,993.41
2018-07-31T02:50:08.451Z,993.40
2018-07-31T02:51:08.442Z,993.36
2018-07-31T02:52:08.429Z,993.34
2018-07-31T02:53:08.423Z,993.36
2018-07-31T02:54:08.397Z,993.35
2018-07-31T02:55:08.382Z,993.37
2018-07-31T02:56:08.422Z,993.36
2018-07-31T02:57:08.378Z,993.34
2018-07-31T02:58:08.367Z,993.34
2018-07-31T02:59:08.332Z,993.32
2018-07-31T03:00:08.326Z,993.28
2018-07-31T03:01:08.306Z,993.33
2018-07-31T03:02:08.310Z,993.31
2018-07-31T03:03:08.278Z,993.30
2018-07-31T03:04:08.275Z,993.35
2018-07-31T03:05:08.252Z,993.34
2018-07-31T03:06:08.230Z,993.33
2018-07-31T03:07:08.220Z,993.32
2018-07-31T03:08:08.285Z,993.31
2018-07-31T03:09:08.193Z,993.35
2018-07-31T03:10:08.183Z,993.29
2018-07-31T03:11:08.172Z,993.33
2018-07-31T03:12:08.163Z,993.32
2018-07-31T03:13:08.134Z,993.33
2018-07-31T03:14:08.126Z,993.31
2018-07-31T03:15:08.104Z,993.34
2018-07-31T03:16:08.120Z,993.34
2018-07-31T03:17:08.088Z,993.37
2018-07-31T03:18:08.069Z,993.36
2018-07-31T03:19:08.049Z,993.34
2018-07-31T03:20:08.041Z,993.36
2018-07-31T03:21:08.026Z,993.37
2018-07-31T03:22:08.014Z,993.39
2018-07-31T03:23:07.992Z,993.35
2018-07-31T03:24:07.975Z,993.41
2018-07-31T03:25:07.965Z,993.41
2018-07-31T03:26:07.953Z,993.41
2018-07-31T03:27:07.938Z,993.43
2018-07-31T03:28:07.966Z,993.44
2018-07-31T03:29:07.910Z,993.43
2018-07-31T03:30:07.894Z,993.43
2018-07-31T03:31:07.878Z,993.42
2018-07-31T03:32:07.866Z,993.43
2018-07-31T03:33:07.856Z,993.42
2018-07-31T03:34:07.833Z,993.44
2018-07-31T03:35:07.825Z,993.42
2018-07-31T03:36:07.815Z,993.44
2018-07-31T03:37:07.796Z,993.40
2018-07-31T03:38:07.785Z,993.39
2018-07-31T03:39:07.773Z,993.41
2018-07-31T03:40:07.756Z,993.40
2018-07-31T03:41:07.744Z,993.38
2018-07-31T03:42:07.730Z,993.35
2018-07-31T03:43:07.718Z,993.39
2018-07-31T03:44:07.701Z,993.37
2018-07-31T03:45:07.681Z,993.36
2018-07-31T03:46:07.666Z,993.37
2018-07-31T03:47:07.659Z,993.40
2018-07-31T03:48:07.643Z,993.41
2018-07-31T03:49:07.627Z,993.40
2018-07-31T03:50:07.661Z,993.45
2018-07-31T03:51:07.602Z,993.45
2018-07-31T03:52:07.586Z,993.43
2018-07-31T03:53:07.573Z,993.43
2018-07-31T03:54:07.554Z,993.46
2018-07-31T03:55:07.548Z,993.46
2018-07-31T03:56:07.526Z,993.43
2018-07-31T03:57:07.514Z,993.46
2018-07-31T03:58:07.506Z,993.49
2018-07-31T03:59:07.493Z,993.45
2018-07-31T04:00:07.474Z,993.47
2018-07-31T04:01:07.455Z,993.46
2018-07-31T04:02:07.448Z,993.47
2018-07-31T04:03:07.426Z,993.46
2018-07-31T04:04:07.416Z,993.47
2018-07-31T04:05:07.411Z,993.51
2018-07-31T04:06:07.387Z,993.48
2018-07-31T04:07:07.375Z,993.48
2018-07-31T04:08:07.362Z,993.48
2018-07-31T04:09:07.342Z,993.48
2018-07-31T04:10:07.332Z,993.48
2018-07-31T04:11:07.320Z,993.49
2018-07-31T04:12:07.303Z,993.48
2018-07-31T04:13:07.288Z,993.49
2018-07-31T04:14:07.281Z,993.51
2018-07-31T04:15:07.260Z,993.51
2018-07-31T04:16:07.247Z,993.50
2018-07-31T04:17:07.265Z,993.54
2018-07-31T04:18:07.219Z,993.53
2018-07-31T04:19:07.205Z,993.56
2018-07-31T04:20:07.189Z,993.56
2018-07-31T04:21:07.170Z,993.54
2018-07-31T04:22:07.164Z,993.58
2018-07-31T04:23:07.148Z,993.57
2018-07-31T04:24:07.134Z,993.61
2018-07-31T04:25:07.123Z,993.58
2018-07-31T04:26:07.101Z,993.57
2018-07-31T04:27:07.089Z,993.62
2018-07-31T04:28:07.072Z,993.59
2018-07-31T04:29:07.063Z,993.61
2018-07-31T04:30:07.070Z,993.61
2018-07-31T04:31:07.032Z,993.57
2018-07-31T04:32:07.015Z,993.60
2018-07-31T04:33:07.005Z,993.58
2018-07-31T04:34:06.989Z,993.57
2018-07-31T04:35:06.976Z,993.60
2018-07-31T04:36:07.004Z,993.59
2018-07-31T04:37:06.967Z,993.56
2018-07-31T04:38:06.931Z,993.58
2018-07-31T04:39:06.919Z,993.60
2018-07-31T04:40:06.911Z,993.55
2018-07-31T04:41:06.904Z,993.61
2018-07-31T04:42:06.878Z,993.62
2018-07-31T04:43:06.862Z,993.64
2018-07-31T04:44:06.858Z,993.66
2018-07-31T04:45:06.830Z,993.65
2018-07-31T04:46:06.820Z,993.65
2018-07-31T04:47:06.804Z,993.60
2018-07-31T04:48:06.792Z,993.68
2018-07-31T04:49:06.775Z,993.62
2018-07-31T04:50:06.766Z,993.62
2018-07-31T04:51:06.754Z,993.61
2018-07-31T04:52:06.734Z,993.64
2018-07-31T04:53:06.721Z,993.63
2018-07-31T04:54:06.714Z,993.63
2018-07-31T04:55:06.693Z,993.60
2018-07-31T04:56:06.677Z,993.61
2018-07-31T04:57:06.665Z,993.60
2018-07-31T04:58:06.654Z,993.60
2018-07-31T04:59:06.641Z,993.61
2018-07-31T05:00:06.625Z,993.58
2018-07-31T05:01:06.613Z,993.60
2018-07-31T05:02:06.597Z,993.60
2018-07-31T05:03:06.584Z,993.62
2018-07-31T05:04:06.571Z,993.60
2018-07-31T05:05:06.555Z,993.63
2018-07-31T05:06:06.539Z,993.60
2018-07-31T05:07:06.526Z,993.64
2018-07-31T05:08:06.513Z,993.63
2018-07-31T05:09:06.497Z,993.65
2018-07-31T05:10:06.482Z,993.66
2018-07-31T05:11:06.511Z,993.66
2018-07-31T05:12:06.457Z,993.69
2018-07-31T05:13:06.440Z,993.72
2018-07-31T05:14:06.434Z,993.72
2018-07-31T05:15:06.417Z,993.76
2018-07-31T05:16:06.402Z,993.72
2018-07-31T05:17:06.389Z,993.75
2018-07-31T05:18:06.462Z,993.75
2018-07-31T05:19:06.361Z,993.77
2018-07-31T05:20:06.348Z,993.77
2018-07-31T05:21:06.340Z,993.78
2018-07-31T05:22:06.322Z,993.76
2018-07-31T05:23:06.310Z,993.74
2018-07-31T05:24:06.294Z,993.75
2018-07-31T05:25:06.342Z,993.75
2018-07-31T05:26:06.279Z,993.79
2018-07-31T05:27:06.256Z,993.76
2018-07-31T05:28:06.243Z,993.75
2018-07-31T05:29:06.237Z,993.80
2018-07-31T05:30:06.221Z,993.77
2018-07-31T05:31:06.208Z,993.80
2018-07-31T05:32:06.198Z,993.79
2018-07-31T05:33:06.180Z,993.82
2018-07-31T05:34:06.163Z,993.81
2018-07-31T05:35:06.150Z,993.83
2018-07-31T05:36:06.138Z,993.88
2018-07-31T05:37:06.125Z,993.89
2018-07-31T05:38:06.114Z,993.90
2018-07-31T05:39:06.094Z,993.92
2018-07-31T05:40:06.088Z,993.89
2018-07-31T05:41:06.079Z,993.91
2018-07-31T05:42:06.052Z,993.91
2018-07-31T05:43:06.047Z,993.90
2018-07-31T05:44:06.052Z,993.92
2018-07-31T05:45:06.024Z,993.89
2018-07-31T05:46:06.028Z,993.90
2018-07-31T05:47:05.995Z,993.88
2018-07-31T05:48:05.985Z,993.90
2018-07-31T05:49:05.972Z,993.89
2018-07-31T05:50:05.960Z,993.96
2018-07-31T05:51:05.947Z,993.97
2018-07-31T05:52:05.942Z,993.96
2018-07-31T05:53:05.931Z,993.98
2018-07-31T05:54:05.910Z,993.98
2018-07-31T05:55:05.913Z,993.98
2018-07-31T05:56:05.881Z,993.95
2018-07-31T05:57:05.875Z,993.97
2018-07-31T05:58:05.863Z,993.94
2018-07-31T05:59:05.850Z,993.92
2018-07-31T06:00:05.840Z,993.88
2018-07-31T06:01:05.821Z,993.93
2018-07-31T06:02:05.817Z,993.89
2018-07-31T06:03:05.802Z,993.95
2018-07-31T06:04:05.792Z,993.88
2018-07-31T06:05:05.782Z,993.91
2018-07-31T06:06:05.769Z,993.92
2018-07-31T06:07:05.763Z,993.95
2018-07-31T06:08:05.744Z,993.93
2018-07-31T06:09:05.734Z,993.92
2018-07-31T06:10:05.721Z,993.92
2018-07-31T06:11:05.719Z,993.96
2018-07-31T06:12:05.697Z,993.93
2018-07-31T06:13:05.695Z,993.97
2018-07-31T06:14:05.682Z,993.95
2018-07-31T06:15:05.676Z,993.89
2018-07-31T06:16:05.661Z,993.94
2018-07-31T06:17:05.652Z,993.91
2018-07-31T06:18:05.640Z,993.90
2018-07-31T06:19:05.627Z,993.89
2018-07-31T06:20:05.612Z,993.91
2018-07-31T06:21:05.601Z,993.90
2018-07-31T06:22:05.601Z,993.87
2018-07-31T06:23:05.579Z,993.91
2018-07-31T06:24:05.593Z,993.92
2018-07-31T06:25:05.560Z,993.91
2018-07-31T06:26:05.548Z,993.94
2018-07-31T06:27:05.608Z,993.94
2018-07-31T06:28:05.540Z,993.96
2018-07-31T06:29:05.539Z,993.98
2018-07-31T06:30:05.508Z,993.99
2018-07-31T06:31:05.499Z,994.06
2018-07-31T06:32:05.486Z,994.04
2018-07-31T06:33:05.482Z,994.07
2018-07-31T06:34:05.480Z,994.04
2018-07-31T06:35:05.458Z,994.08
2018-07-31T06:36:05.444Z,994.06
2018-07-31T06:37:05.445Z,994.07
2018-07-31T06:38:05.431Z,994.09
2018-07-31T06:39:05.425Z,994.11
2018-07-31T06:40:05.412Z,994.10
2018-07-31T06:41:05.401Z,994.07
2018-07-31T06:42:05.389Z,994.11
2018-07-31T06:43:05.380Z,994.11
2018-07-31T06:44:05.364Z,994.14
2018-07-31T06:45:05.361Z,994.14
2018-07-31T06:46:05.356Z,994.18
2018-07-31T06:47:05.339Z,994.18
2018-07-31T06:48:05.338Z,994.23
2018-07-31T06:49:05.325Z,994.27
2018-07-31T06:50:05.315Z,994.29
2018-07-31T06:51:05.305Z,994.35
2018-07-31T06:52:05.290Z,994.35
2018-07-31T06:53:05.293Z,994.34
2018-07-31T06:54:05.277Z,994.38
2018-07-31T06:55:05.273Z,994.37
2018-07-31T06:56:05.261Z,994.40
2018-07-31T06:57:05.251Z,994.38
2018-07-31T06:58:05.241Z,994.40
2018-07-31T06:59:05.225Z,994.41
2018-07-31T07:00:05.225Z,994.46
2018-07-31T07:01:05.216Z,994.47
2018-07-31T07:02:05.255Z,994.47
2018-07-31T07:03:05.197Z,994.48
2018-07-31T07:04:05.188Z,994.48
2018-07-31T07:05:05.178Z,994.51
2018-07-31T07:06:05.207Z,994.53
2018-07-31T07:07:05.165Z,994.53
2018-07-31T07:08:05.159Z,994.55
2018-07-31T07:09:05.146Z,994.51
2018-07-31T07:10:05.153Z,994.51
2018-07-31T07:11:05.130Z,994.53
2018-07-31T07:12:05.126Z,994.53
2018-07-31T07:13:05.114Z,994.56
2018-07-31T07:14:05.111Z,994.57
2018-07-31T07:15:05.094Z,994.59
2018-07-31T07:16:05.098Z,994.57
2018-07-31T07:17:05.084Z,994.54
2018-07-31T07:18:05.072Z,994.56
2018-07-31T07:19:05.059Z,994.59
2018-07-31T07:20:05.060Z,994.61
2018-07-31T07:21:05.050Z,994.62
2018-07-31T07:22:05.049Z,994.61
2018-07-31T07:23:05.050Z,994.59
2018-07-31T07:24:05.030Z,994.64
2018-07-31T07:25:05.015Z,994.65
2018-07-31T07:26:05.020Z,994.67
2018-07-31T07:27:05.005Z,994.69
2018-07-31T07:28:05.021Z,994.68
2018-07-31T07:29:04.993Z,994.68
2018-07-31T07:30:04.989Z,994.71
2018-07-31T07:31:04.973Z,994.72
2018-07-31T07:32:04.969Z,994.73
2018-07-31T07:33:04.963Z,994.74
2018-07-31T07:34:05.089Z,994.75
2018-07-31T07:35:04.944Z,994.77
2018-07-31T07:36:04.949Z,994.77
2018-07-31T07:37:04.938Z,994.79
2018-07-31T07:38:04.938Z,994.80
2018-07-31T07:39:04.931Z,994.80
2018-07-31T07:40:04.968Z,994.84
2018-07-31T07:41:04.912Z,994.81
2018-07-31T07:42:04.912Z,994.77
2018-07-31T07:43:04.902Z,994.79
2018-07-31T07:44:04.902Z,994.79
2018-07-31T07:45:04.896Z,994.79
2018-07-31T07:46:04.886Z,994.76
2018-07-31T07:47:04.889Z,994.78
2018-07-31T07:48:04.879Z,994.79
2018-07-31T07:49:04.878Z,994.77
2018-07-31T07:50:04.877Z,994.75
2018-07-31T07:51:04.873Z,994.79
2018-07-31T07:52:04.867Z,994.76
2018-07-31T07:53:04.860Z,994.79
2018-07-31T07:54:04.932Z,994.80
2018-07-31T07:55:04.851Z,994.78
2018-07-31T07:56:04.849Z,994.82
2018-07-31T07:57:04.848Z,994.78
2018-07-31T07:58:04.850Z,994.80
2018-07-31T07:59:04.843Z,994.81
2018-07-31T08:00:04.832Z,994.83
2018-07-31T08:01:04.831Z,994.85
2018-07-31T08:02:04.828Z,994.85
2018-07-31T08:03:04.825Z,994.81
2018-07-31T08:04:04.917Z,994.83
2018-07-31T08:05:04.822Z,994.83
2018-07-31T08:06:04.822Z,994.83
2018-07-31T08:07:04.809Z,994.81
2018-07-31T08:08:04.812Z,994.87
2018-07-31T08:09:04.806Z,994.87
2018-07-31T08:10:04.806Z,994.87
2018-07-31T08:11:04.808Z,994.90
2018-07-31T08:12:04.800Z,994.94
2018-07-31T08:13:04.801Z,994.93
2018-07-31T08:14:04.793Z,994.98
2018-07-31T08:15:04.825Z,994.96
2018-07-31T08:16:04.790Z,994.97
2018-07-31T08:17:04.793Z,994.95
2018-07-31T08:18:04.777Z,994.96
2018-07-31T08:19:04.783Z,994.95
2018-07-31T08:20:04.778Z,994.98
2018-07-31T08:21:04.779Z,994.96
2018-07-31T08:22:04.795Z,994.98
2018-07-31T08:23:04.771Z,994.99
2018-07-31T08:24:04.768Z,994.97
2018-07-31T08:25:04.768Z,994.98
2018-07-31T08:26:04.764Z,995.02
2018-07-31T08:27:04.761Z,995.04
2018-07-31T08:28:04.761Z,995.01
2018-07-31T08:29:04.764Z,994.96
2018-07-31T08:30:04.755Z,994.95
2018-07-31T08:31:04.756Z,994.98
2018-07-31T08:32:04.755Z,994.99
2018-07-31T08:33:04.749Z,995.02
2018-07-31T08:34:04.742Z,994.99
2018-07-31T08:35:04.742Z,995.02
2018-07-31T08:36:04.740Z,995.01
2018-07-31T08:37:04.767Z,995.07
2018-07-31T08:38:04.736Z,995.06
2018-07-31T08:39:04.742Z,995.04
2018-07-31T08:40:04.729Z,995.03
2018-07-31T08:41:04.730Z,995.07
2018-07-31T08:42:04.730Z,995.02
2018-07-31T08:43:04.723Z,995.03
2018-07-31T08:44:04.729Z,995.03
2018-07-31T08:45:04.737Z,995.02
2018-07-31T08:46:04.723Z,995.06
2018-07-31T08:47:04.718Z,995.01
2018-07-31T08:48:04.715Z,994.98
2018-07-31T08:49:04.715Z,994.99
2018-07-31T08:50:04.732Z,995.01
2018-07-31T08:51:04.708Z,995.06
2018-07-31T08:52:04.709Z,995.05
2018-07-31T08:53:04.699Z,995.00
2018-07-31T08:54:04.706Z,995.03
2018-07-31T08:55:04.699Z,995.04
2018-07-31T08:56:04.702Z,995.06
2018-07-31T08:57:04.768Z,995.08
2018-07-31T08:58:04.700Z,995.07
2018-07-31T08:59:04.694Z,995.08
2018-07-31T09:00:04.693Z,995.07
2018-07-31T09:01:04.693Z,995.05
2018-07-31T09:02:04.693Z,995.08
2018-07-31T09:03:04.689Z,995.09
2018-07-31T09:04:04.695Z,995.08
2018-07-31T09:05:04.689Z,995.09
2018-07-31T09:06:04.696Z,995.08
2018-07-31T09:07:04.683Z,995.05
2018-07-31T09:08:04.732Z,995.06
2018-07-31T09:09:04.680Z,995.04
2018-07-31T09:10:04.681Z,995.05
2018-07-31T09:11:04.690Z,995.04
2018-07-31T09:12:04.674Z,995.04
2018-07-31T09:13:04.680Z,995.04
2018-07-31T09:14:04.674Z,995.05
2018-07-31T09:15:04.670Z,995.04
2018-07-31T09:16:04.670Z,995.02
2018-07-31T09:17:04.664Z,995.04
2018-07-31T09:18:04.667Z,995.04
2018-07-31T09:19:04.663Z,995.03
2018-07-31T09:20:04.668Z,995.02
2018-07-31T09:21:04.658Z,995.00
2018-07-31T09:22:04.680Z,995.03
2018-07-31T09:23:04.655Z,995.01
2018-07-31T09:24:04.654Z,995.01
2018-07-31T09:25:04.657Z,995.03
2018-07-31T09:26:04.652Z,995.01
2018-07-31T09:27:04.651Z,995.03
2018-07-31T09:28:04.645Z,995.08
2018-07-31T09:29:04.648Z,995.09
2018-07-31T09:30:04.648Z,995.10
2018-07-31T09:31:04.761Z,995.08
2018-07-31T09:32:04.652Z,995.07
2018-07-31T09:33:04.642Z,995.02
2018-07-31T09:34:04.643Z,995.07
2018-07-31T09:35:04.639Z,995.08
2018-07-31T09:36:04.699Z,995.08
2018-07-31T09:37:04.635Z,995.07
2018-07-31T09:38:04.686Z,995.04
2018-07-31T09:39:04.633Z,995.08
2018-07-31T09:40:04.675Z,995.08
2018-07-31T09:41:04.629Z,995.08
2018-07-31T09:42:04.632Z,995.09
2018-07-31T09:43:04.629Z,995.07
2018-07-31T09:44:04.623Z,995.08
2018-07-31T09:45:04.629Z,995.09
2018-07-31T09:46:04.623Z,995.13
2018-07-31T09:47:04.620Z,995.13
2018-07-31T09:48:04.617Z,995.11
2018-07-31T09:49:04.622Z,995.07
2018-07-31T09:50:04.624Z,995.10
2018-07-31T09:51:04.616Z,995.11
2018-07-31T09:52:04.613Z,995.10
2018-07-31T09:53:04.616Z,995.11
2018-07-31T09:54:04.620Z,995.14
2018-07-31T09:55:04.613Z,995.15
2018-07-31T09:56:04.610Z,995.14
2018-07-31T09:57:04.607Z,995.17
2018-07-31T09:58:04.608Z,995.15
2018-07-31T09:59:04.607Z,995.15
2018-07-31T10:00:04.607Z,995.17
2018-07-31T10:01:04.615Z,995.15
2018-07-31T10:02:04.597Z,995.12
2018-07-31T10:03:04.614Z,995.18
2018-07-31T10:04:04.603Z,995.14
2018-07-31T10:05:04.671Z,995.10
2018-07-31T10:06:04.597Z,995.10
2018-07-31T10:07:04.597Z,995.08
2018-07-31T10:08:04.598Z,995.11
2018-07-31T10:09:04.649Z,995.07
2018-07-31T10:10:04.597Z,995.04
2018-07-31T10:11:04.594Z,995.03
2018-07-31T10:12:04.653Z,995.07
2018-07-31T10:13:04.591Z,995.05
2018-07-31T10:14:04.590Z,995.03
2018-07-31T10:15:04.594Z,995.02
2018-07-31T10:16:04.589Z,995.03
2018-07-31T10:17:04.588Z,995.00
2018-07-31T10:18:04.716Z,995.01
2018-07-31T10:19:04.591Z,995.01
2018-07-31T10:20:04.586Z,995.03
2018-07-31T10:21:04.591Z,994.97
2018-07-31T10:22:04.594Z,994.99
2018-07-31T10:23:04.588Z,995.00
2018-07-31T10:24:04.598Z,994.99
2018-07-31T10:25:04.585Z,994.98
2018-07-31T10:26:04.596Z,995.00
2018-07-31T10:27:04.595Z,994.96
2018-07-31T10:28:04.588Z,994.97
2018-07-31T10:29:04.594Z,994.98
2018-07-31T10:30:04.594Z,994.97
2018-07-31T10:31:04.675Z,994.95
2018-07-31T10:32:04.597Z,994.93
2018-07-31T10:33:04.598Z,994.92
2018-07-31T10:34:04.595Z,994.93
2018-07-31T10:35:04.600Z,994.97
2018-07-31T10:36:04.598Z,994.97
2018-07-31T10:37:04.614Z,994.97
2018-07-31T10:38:04.607Z,994.93
2018-07-31T10:39:04.604Z,994.97
2018-07-31T10:40:04.607Z,994.95
2018-07-31T10:41:04.610Z,994.94
2018-07-31T10:42:04.610Z,994.94
2018-07-31T10:43:04.610Z,994.92
2018-07-31T10:44:04.651Z,994.91
2018-07-31T10:45:04.627Z,994.88
2018-07-31T10:46:04.624Z,994.84
2018-07-31T10:47:04.623Z,994.89
2018-07-31T10:48:04.623Z,994.86
2018-07-31T10:49:04.679Z,994.84
2018-07-31T10:50:04.623Z,994.87
2018-07-31T10:51:04.659Z,994.85
2018-07-31T10:52:04.632Z,994.86
2018-07-31T10:53:04.636Z,994.83
2018-07-31T10:54:04.642Z,994.82
2018-07-31T10:55:04.697Z,994.85
2018-07-31T10:56:04.652Z,994.84
2018-07-31T10:57:04.652Z,994.86
2018-07-31T10:58:04.711Z,994.84
2018-07-31T10:59:04.662Z,994.89
2018-07-31T11:00:04.777Z,994.90
2018-07-31T11:01:04.668Z,994.85
2018-07-31T11:02:04.668Z,994.85
2018-07-31T11:03:04.699Z,994.84
2018-07-31T11:04:04.775Z,994.85
2018-07-31T11:05:04.690Z,994.85
2018-07-31T11:06:04.687Z,994.85
2018-07-31T11:07:04.694Z,994.87
2018-07-31T11:08:04.693Z,994.83
2018-07-31T11:09:04.701Z,994.83
2018-07-31T11:10:04.707Z,994.86
2018-07-31T11:11:04.709Z,994.81
2018-07-31T11:12:04.714Z,994.81
2018-07-31T11:13:04.723Z,994.81
2018-07-31T11:14:04.724Z,994.79
2018-07-31T11:15:04.731Z,994.76
2018-07-31T11:16:04.737Z,994.76
2018-07-31T11:17:04.743Z,994.79
2018-07-31T11:18:04.743Z,994.81
2018-07-31T11:19:04.753Z,994.79
2018-07-31T11:20:04.761Z,994.73
2018-07-31T11:21:04.844Z,994.73
2018-07-31T11:22:04.765Z,994.76
2018-07-31T11:23:04.772Z,994.80
2018-07-31T11:24:04.782Z,994.74
2018-07-31T11:25:04.795Z,994.76
2018-07-31T11:26:04.791Z,994.72
2018-07-31T11:27:04.807Z,994.77
2018-07-31T11:28:04.804Z,994.81
2018-07-31T11:29:04.817Z,994.76
2018-07-31T11:30:04.827Z,994.79
2018-07-31T11:31:04.834Z,994.82
2018-07-31T11:32:04.836Z,994.77
2018-07-31T11:33:04.909Z,994.75
2018-07-31T11:34:04.853Z,994.84
2018-07-31T11:35:04.856Z,994.85
2018-07-31T11:36:04.862Z,994.79
2018-07-31T11:37:04.875Z,994.82
2018-07-31T11:38:04.878Z,994.81
2018-07-31T11:39:04.884Z,994.79
2018-07-31T11:40:04.901Z,994.77
2018-07-31T11:41:04.900Z,994.78
2018-07-31T11:42:04.923Z,994.74
2018-07-31T11:43:04.924Z,994.69
2018-07-31T11:44:04.985Z,994.71
2018-07-31T11:45:04.930Z,994.70
2018-07-31T11:46:05.032Z,994.72
2018-07-31T11:47:04.951Z,994.68
2018-07-31T11:48:04.955Z,994.69
2018-07-31T11:49:04.968Z,994.71
2018-07-31T11:50:05.095Z,994.63
2018-07-31T11:51:04.987Z,994.65
2018-07-31T11:52:04.996Z,994.60
2018-07-31T11:53:04.999Z,994.65
2018-07-31T11:54:05.013Z,994.65
2018-07-31T11:55:05.013Z,994.70
2018-07-31T11:56:05.032Z,994.67
2018-07-31T11:57:05.032Z,994.68
2018-07-31T11:58:05.035Z,994.68
2018-07-31T11:59:05.045Z,994.65
2018-07-31T12:00:05.051Z,994.63
2018-07-31T12:01:05.061Z,994.64
2018-07-31T12:02:05.070Z,994.66
2018-07-31T12:03:05.070Z,994.67
2018-07-31T12:04:05.116Z,994.69
2018-07-31T12:05:05.092Z,994.64
2018-07-31T12:06:05.102Z,994.62
2018-07-31T12:07:05.105Z,994.63
2018-07-31T12:08:05.121Z,994.61
2018-07-31T12:09:05.122Z,994.62
2018-07-31T12:10:05.134Z,994.61
2018-07-31T12:11:05.135Z,994.63
2018-07-31T12:12:05.147Z,994.63
2018-07-31T12:13:05.150Z,994.60
2018-07-31T12:14:05.374Z,994.60
2018-07-31T12:15:05.179Z,994.59
2018-07-31T12:16:05.246Z,994.59
2018-07-31T12:17:05.189Z,994.58
2018-07-31T12:18:05.202Z,994.60
2018-07-31T12:19:05.230Z,994.59
2018-07-31T12:20:05.218Z,994.59
2018-07-31T12:21:05.231Z,994.56
2018-07-31T12:22:05.241Z,994.54
2018-07-31T12:23:05.243Z,994.52
2018-07-31T12:24:05.256Z,994.52
2018-07-31T12:25:05.259Z,994.58
2018-07-31T12:26:05.325Z,994.50
2018-07-31T12:27:05.367Z,994.52
2018-07-31T12:28:05.298Z,994.52